sensor_id;sensor_type;location;lat;lon;timestamp;P1;durP1;ratioP1;P2;durP2;ratioP2
36501;SDS011;25393;46.108;3.390;2022-09-11T00:00:56;3.00;;;0.90;;
36501;SDS011;25393;46.108;3.390;2022-09-11T00:03:24;2.78;;;0.75;;
36501;SDS011;25393;46.108;3.390;2022-09-11T00:05:53;1.40;;;0.70;;
36501;SDS011;25393;46.108;3.390;2022-09-11T00:08:20;3.50;;;1.00;;
36501;SDS011;25393;46.108;3.390;2022-09-11T00:10:47;1.05;;;0.80;;
36501;SDS011;25393;46.108;3.390;2022-09-11T00:13:21;3.35;;;0.80;;
36501;SDS011;25393;46.108;3.390;2022-09-11T00:15:49;1.48;;;0.90;;
36501;SDS011;25393;46.108;3.390;2022-09-11T00:18:17;1.73;;;0.77;;
36501;SDS011;25393;46.108;3.390;2022-09-11T00:23:17;0.98;;;0.73;;
36501;SDS011;25393;46.108;3.390;2022-09-11T00:25:45;5.00;;;0.70;;
36501;SDS011;25393;46.108;3.390;2022-09-11T00:28:13;4.43;;;0.90;;
36501;SDS011;25393;46.108;3.390;2022-09-11T00:31:10;4.40;;;1.10;;
36501;SDS011;25393;46.108;3.390;2022-09-11T00:33:39;4.68;;;0.70;;
36501;SDS011;25393;46.108;3.390;2022-09-11T00:36:12;1.35;;;0.80;;
36501;SDS011;25393;46.108;3.390;2022-09-11T00:38:40;2.70;;;0.90;;
36501;SDS011;25393;46.108;3.390;2022-09-11T00:41:10;2.85;;;0.98;;
36501;SDS011;25393;46.108;3.390;2022-09-11T00:46:34;7.25;;;1.05;;
36501;SDS011;25393;46.108;3.390;2022-09-11T00:51:42;1.88;;;1.05;;
36501;SDS011;25393;46.108;3.390;2022-09-11T00:54:12;4.85;;;0.90;;
36501;SDS011;25393;46.108;3.390;2022-09-11T00:56:41;3.15;;;1.23;;
36501;SDS011;25393;46.108;3.390;2022-09-11T00:59:09;1.92;;;1.00;;
36501;SDS011;25393;46.108;3.390;2022-09-11T01:01:37;3.35;;;1.25;;
36501;SDS011;25393;46.108;3.390;2022-09-11T01:04:04;3.13;;;1.25;;
36501;SDS011;25393;46.108;3.390;2022-09-11T01:06:35;3.40;;;1.00;;
36501;SDS011;25393;46.108;3.390;2022-09-11T01:09:04;2.83;;;0.93;;
36501;SDS011;25393;46.108;3.390;2022-09-11T01:14:26;3.45;;;0.90;;
36501;SDS011;25393;46.108;3.390;2022-09-11T01:25:04;1.20;;;1.10;;
36501;SDS011;25393;46.108;3.390;2022-09-11T01:30:19;1.95;;;1.15;;
36501;SDS011;25393;46.108;3.390;2022-09-11T01:35:40;5.53;;;1.20;;
36501;SDS011;25393;46.108;3.390;2022-09-11T01:41:27;2.35;;;1.30;;
36501;SDS011;25393;46.108;3.390;2022-09-11T01:44:08;5.80;;;1.13;;
36501;SDS011;25393;46.108;3.390;2022-09-11T01:46:44;7.72;;;1.17;;
36501;SDS011;25393;46.108;3.390;2022-09-11T01:49:16;3.25;;;0.95;;
36501;SDS011;25393;46.108;3.390;2022-09-11T01:51:48;6.20;;;1.20;;
36501;SDS011;25393;46.108;3.390;2022-09-11T01:54:20;2.63;;;1.15;;
36501;SDS011;25393;46.108;3.390;2022-09-11T01:56:52;1.75;;;1.05;;
36501;SDS011;25393;46.108;3.390;2022-09-11T01:59:23;3.75;;;1.00;;
36501;SDS011;25393;46.108;3.390;2022-09-11T02:02:00;3.80;;;1.10;;
36501;SDS011;25393;46.108;3.390;2022-09-11T02:04:36;4.63;;;1.08;;
36501;SDS011;25393;46.108;3.390;2022-09-11T02:07:11;4.15;;;1.58;;
36501;SDS011;25393;46.108;3.390;2022-09-11T02:09:55;1.73;;;1.30;;
36501;SDS011;25393;46.108;3.390;2022-09-11T02:12:26;4.95;;;1.08;;
36501;SDS011;25393;46.108;3.390;2022-09-11T02:14:59;5.30;;;1.33;;
36501;SDS011;25393;46.108;3.390;2022-09-11T02:17:30;5.50;;;1.30;;
36501;SDS011;25393;46.108;3.390;2022-09-11T02:20:09;5.85;;;1.10;;
36501;SDS011;25393;46.108;3.390;2022-09-11T02:22:39;3.88;;;1.00;;
36501;SDS011;25393;46.108;3.390;2022-09-11T02:25:06;2.95;;;1.10;;
36501;SDS011;25393;46.108;3.390;2022-09-11T02:27:33;0.88;;;0.88;;
36501;SDS011;25393;46.108;3.390;2022-09-11T02:29:59;1.17;;;0.73;;
36501;SDS011;25393;46.108;3.390;2022-09-11T02:32:26;4.32;;;1.10;;
36501;SDS011;25393;46.108;3.390;2022-09-11T02:34:54;4.43;;;0.90;;
36501;SDS011;25393;46.108;3.390;2022-09-11T02:37:28;1.88;;;0.73;;
36501;SDS011;25393;46.108;3.390;2022-09-11T02:51:30;3.00;;;0.90;;
36501;SDS011;25393;46.108;3.390;2022-09-11T02:54:14;4.30;;;0.95;;
36501;SDS011;25393;46.108;3.390;2022-09-11T02:59:37;2.08;;;0.80;;
36501;SDS011;25393;46.108;3.390;2022-09-11T03:02:13;5.47;;;1.05;;
36501;SDS011;25393;46.108;3.390;2022-09-11T03:04:44;5.05;;;1.25;;
36501;SDS011;25393;46.108;3.390;2022-09-11T03:07:10;2.83;;;1.05;;
36501;SDS011;25393;46.108;3.390;2022-09-11T03:09:37;2.15;;;0.93;;
36501;SDS011;25393;46.108;3.390;2022-09-11T03:12:04;5.72;;;1.08;;
36501;SDS011;25393;46.108;3.390;2022-09-11T03:14:31;2.25;;;0.93;;
36501;SDS011;25393;46.108;3.390;2022-09-11T03:16:57;3.90;;;1.33;;
36501;SDS011;25393;46.108;3.390;2022-09-11T03:19:24;1.10;;;1.00;;
36501;SDS011;25393;46.108;3.390;2022-09-11T03:21:50;4.60;;;1.73;;
36501;SDS011;25393;46.108;3.390;2022-09-11T03:24:17;3.40;;;1.08;;
36501;SDS011;25393;46.108;3.390;2022-09-11T03:26:47;0.77;;;0.77;;
36501;SDS011;25393;46.108;3.390;2022-09-11T03:29:13;3.60;;;1.15;;
36501;SDS011;25393;46.108;3.390;2022-09-11T03:31:40;6.55;;;1.10;;
36501;SDS011;25393;46.108;3.390;2022-09-11T03:34:07;4.18;;;1.20;;
36501;SDS011;25393;46.108;3.390;2022-09-11T03:36:34;5.45;;;1.25;;
36501;SDS011;25393;46.108;3.390;2022-09-11T03:39:00;1.35;;;1.20;;
36501;SDS011;25393;46.108;3.390;2022-09-11T03:41:27;2.33;;;1.15;;
36501;SDS011;25393;46.108;3.390;2022-09-11T03:43:54;1.83;;;1.10;;
36501;SDS011;25393;46.108;3.390;2022-09-11T03:46:20;3.15;;;1.10;;
36501;SDS011;25393;46.108;3.390;2022-09-11T03:48:47;2.05;;;1.00;;
36501;SDS011;25393;46.108;3.390;2022-09-11T03:51:14;2.55;;;0.93;;
36501;SDS011;25393;46.108;3.390;2022-09-11T03:53:42;2.60;;;0.77;;
36501;SDS011;25393;46.108;3.390;2022-09-11T03:56:10;1.50;;;0.88;;
36501;SDS011;25393;46.108;3.390;2022-09-11T03:58:37;4.28;;;1.27;;
36501;SDS011;25393;46.108;3.390;2022-09-11T04:01:07;2.28;;;1.23;;
36501;SDS011;25393;46.108;3.390;2022-09-11T04:03:39;1.77;;;0.90;;
36501;SDS011;25393;46.108;3.390;2022-09-11T04:06:06;8.27;;;1.25;;
36501;SDS011;25393;46.108;3.390;2022-09-11T04:08:33;5.35;;;1.10;;
36501;SDS011;25393;46.108;3.390;2022-09-11T04:11:01;3.83;;;0.80;;
36501;SDS011;25393;46.108;3.390;2022-09-11T04:13:30;2.78;;;0.98;;
36501;SDS011;25393;46.108;3.390;2022-09-11T04:16:02;3.70;;;0.90;;
36501;SDS011;25393;46.108;3.390;2022-09-11T04:18:34;2.38;;;0.77;;
36501;SDS011;25393;46.108;3.390;2022-09-11T04:21:06;1.58;;;0.80;;
36501;SDS011;25393;46.108;3.390;2022-09-11T04:23:34;3.63;;;0.90;;
36501;SDS011;25393;46.108;3.390;2022-09-11T04:26:02;2.13;;;0.80;;
36501;SDS011;25393;46.108;3.390;2022-09-11T04:28:29;1.85;;;1.27;;
36501;SDS011;25393;46.108;3.390;2022-09-11T04:31:03;1.88;;;0.88;;
36501;SDS011;25393;46.108;3.390;2022-09-11T04:33:29;1.67;;;0.95;;
36501;SDS011;25393;46.108;3.390;2022-09-11T04:35:56;0.98;;;0.95;;
36501;SDS011;25393;46.108;3.390;2022-09-11T04:38:23;7.20;;;1.65;;
36501;SDS011;25393;46.108;3.390;2022-09-11T04:40:49;3.40;;;0.85;;
36501;SDS011;25393;46.108;3.390;2022-09-11T04:43:16;1.60;;;0.82;;
36501;SDS011;25393;46.108;3.390;2022-09-11T04:45:45;8.13;;;1.65;;
36501;SDS011;25393;46.108;3.390;2022-09-11T04:48:12;2.05;;;1.00;;
36501;SDS011;25393;46.108;3.390;2022-09-11T04:50:38;0.90;;;0.90;;
36501;SDS011;25393;46.108;3.390;2022-09-11T04:53:15;5.65;;;1.65;;
36501;SDS011;25393;46.108;3.390;2022-09-11T04:55:49;2.97;;;1.13;;
36501;SDS011;25393;46.108;3.390;2022-09-11T04:58:18;2.40;;;1.10;;
36501;SDS011;25393;46.108;3.390;2022-09-11T05:00:45;1.98;;;1.08;;
36501;SDS011;25393;46.108;3.390;2022-09-11T05:03:20;4.38;;;1.15;;
36501;SDS011;25393;46.108;3.390;2022-09-11T05:05:46;3.97;;;1.52;;
36501;SDS011;25393;46.108;3.390;2022-09-11T05:08:13;4.28;;;1.50;;
36501;SDS011;25393;46.108;3.390;2022-09-11T05:10:39;5.60;;;1.38;;
36501;SDS011;25393;46.108;3.390;2022-09-11T05:13:07;3.00;;;1.20;;
36501;SDS011;25393;46.108;3.390;2022-09-11T05:15:34;5.45;;;1.30;;
36501;SDS011;25393;46.108;3.390;2022-09-11T05:18:00;6.80;;;1.27;;
36501;SDS011;25393;46.108;3.390;2022-09-11T05:20:28;4.82;;;1.63;;
36501;SDS011;25393;46.108;3.390;2022-09-11T05:22:56;2.63;;;1.15;;
36501;SDS011;25393;46.108;3.390;2022-09-11T05:25:23;4.07;;;1.20;;
36501;SDS011;25393;46.108;3.390;2022-09-11T05:27:50;1.10;;;1.00;;
36501;SDS011;25393;46.108;3.390;2022-09-11T05:30:17;3.75;;;1.23;;
36501;SDS011;25393;46.108;3.390;2022-09-11T05:32:46;1.92;;;1.13;;
36501;SDS011;25393;46.108;3.390;2022-09-11T05:35:15;1.23;;;0.77;;
36501;SDS011;25393;46.108;3.390;2022-09-11T05:37:42;3.03;;;1.08;;
36501;SDS011;25393;46.108;3.390;2022-09-11T05:40:08;4.63;;;1.35;;
36501;SDS011;25393;46.108;3.390;2022-09-11T05:42:35;2.97;;;1.10;;
36501;SDS011;25393;46.108;3.390;2022-09-11T05:45:02;4.53;;;1.05;;
36501;SDS011;25393;46.108;3.390;2022-09-11T05:47:28;5.50;;;1.20;;
36501;SDS011;25393;46.108;3.390;2022-09-11T05:49:55;1.35;;;0.95;;
36501;SDS011;25393;46.108;3.390;2022-09-11T05:52:22;1.27;;;1.17;;
36501;SDS011;25393;46.108;3.390;2022-09-11T05:54:50;1.33;;;1.00;;
36501;SDS011;25393;46.108;3.390;2022-09-11T05:57:18;0.80;;;0.80;;
36501;SDS011;25393;46.108;3.390;2022-09-11T05:59:45;2.75;;;1.15;;
36501;SDS011;25393;46.108;3.390;2022-09-11T06:02:11;3.30;;;1.50;;
36501;SDS011;25393;46.108;3.390;2022-09-11T06:04:39;2.70;;;1.10;;
36501;SDS011;25393;46.108;3.390;2022-09-11T06:07:05;4.90;;;1.15;;
36501;SDS011;25393;46.108;3.390;2022-09-11T06:09:32;3.25;;;1.52;;
36501;SDS011;25393;46.108;3.390;2022-09-11T06:11:59;5.55;;;1.23;;
36501;SDS011;25393;46.108;3.390;2022-09-11T06:14:26;1.90;;;1.02;;
36501;SDS011;25393;46.108;3.390;2022-09-11T06:16:53;3.10;;;1.15;;
36501;SDS011;25393;46.108;3.390;2022-09-11T06:19:22;4.25;;;1.80;;
36501;SDS011;25393;46.108;3.390;2022-09-11T06:21:49;1.95;;;1.08;;
36501;SDS011;25393;46.108;3.390;2022-09-11T06:24:15;5.53;;;0.90;;
36501;SDS011;25393;46.108;3.390;2022-09-11T06:26:42;2.63;;;1.15;;
36501;SDS011;25393;46.108;3.390;2022-09-11T06:29:11;1.92;;;1.05;;
36501;SDS011;25393;46.108;3.390;2022-09-11T06:31:40;2.08;;;1.13;;
36501;SDS011;25393;46.108;3.390;2022-09-11T06:34:06;2.13;;;1.10;;
36501;SDS011;25393;46.108;3.390;2022-09-11T06:36:33;5.47;;;1.48;;
36501;SDS011;25393;46.108;3.390;2022-09-11T06:38:59;5.57;;;1.15;;
36501;SDS011;25393;46.108;3.390;2022-09-11T06:41:27;2.17;;;1.35;;
36501;SDS011;25393;46.108;3.390;2022-09-11T06:43:54;4.93;;;0.82;;
36501;SDS011;25393;46.108;3.390;2022-09-11T06:46:21;2.00;;;1.10;;
36501;SDS011;25393;46.108;3.390;2022-09-11T06:48:49;3.78;;;1.13;;
36501;SDS011;25393;46.108;3.390;2022-09-11T06:51:17;1.70;;;1.00;;
36501;SDS011;25393;46.108;3.390;2022-09-11T06:53:45;2.33;;;1.05;;
36501;SDS011;25393;46.108;3.390;2022-09-11T06:56:16;1.30;;;0.70;;
36501;SDS011;25393;46.108;3.390;2022-09-11T06:58:45;1.75;;;0.82;;
36501;SDS011;25393;46.108;3.390;2022-09-11T07:01:13;3.85;;;1.17;;
36501;SDS011;25393;46.108;3.390;2022-09-11T07:03:42;2.20;;;1.05;;
36501;SDS011;25393;46.108;3.390;2022-09-11T07:06:13;3.90;;;0.90;;
36501;SDS011;25393;46.108;3.390;2022-09-11T07:08:41;3.95;;;0.80;;
36501;SDS011;25393;46.108;3.390;2022-09-11T07:11:08;1.17;;;1.08;;
36501;SDS011;25393;46.108;3.390;2022-09-11T07:13:38;3.53;;;1.55;;
36501;SDS011;25393;46.108;3.390;2022-09-11T07:16:07;2.83;;;0.70;;
36501;SDS011;25393;46.108;3.390;2022-09-11T07:18:36;3.58;;;1.50;;
36501;SDS011;25393;46.108;3.390;2022-09-11T07:21:14;3.35;;;1.05;;
36501;SDS011;25393;46.108;3.390;2022-09-11T07:23:47;3.55;;;1.23;;
36501;SDS011;25393;46.108;3.390;2022-09-11T07:26:16;4.28;;;1.00;;
36501;SDS011;25393;46.108;3.390;2022-09-11T07:28:44;5.28;;;1.45;;
36501;SDS011;25393;46.108;3.390;2022-09-11T07:31:20;4.53;;;1.02;;
36501;SDS011;25393;46.108;3.390;2022-09-11T07:33:49;4.22;;;0.93;;
36501;SDS011;25393;46.108;3.390;2022-09-11T07:36:21;1.45;;;1.02;;
36501;SDS011;25393;46.108;3.390;2022-09-11T07:38:50;1.75;;;1.05;;
36501;SDS011;25393;46.108;3.390;2022-09-11T07:41:18;6.22;;;1.25;;
36501;SDS011;25393;46.108;3.390;2022-09-11T07:43:50;3.08;;;1.00;;
36501;SDS011;25393;46.108;3.390;2022-09-11T07:46:21;1.58;;;1.10;;
36501;SDS011;25393;46.108;3.390;2022-09-11T07:48:49;1.20;;;0.77;;
36501;SDS011;25393;46.108;3.390;2022-09-11T07:51:16;2.13;;;1.00;;
36501;SDS011;25393;46.108;3.390;2022-09-11T07:53:45;5.90;;;0.93;;
36501;SDS011;25393;46.108;3.390;2022-09-11T07:56:16;2.65;;;1.25;;
36501;SDS011;25393;46.108;3.390;2022-09-11T07:58:46;1.02;;;0.82;;
36501;SDS011;25393;46.108;3.390;2022-09-11T08:01:16;6.30;;;1.20;;
36501;SDS011;25393;46.108;3.390;2022-09-11T08:03:46;3.28;;;0.90;;
36501;SDS011;25393;46.108;3.390;2022-09-11T08:06:15;6.53;;;0.77;;
36501;SDS011;25393;46.108;3.390;2022-09-11T08:08:53;2.65;;;0.88;;
36501;SDS011;25393;46.108;3.390;2022-09-11T08:11:21;5.38;;;1.13;;
36501;SDS011;25393;46.108;3.390;2022-09-11T08:13:52;1.70;;;0.70;;
36501;SDS011;25393;46.108;3.390;2022-09-11T08:16:21;4.20;;;1.30;;
36501;SDS011;25393;46.108;3.390;2022-09-11T08:18:53;2.00;;;0.90;;
36501;SDS011;25393;46.108;3.390;2022-09-11T08:21:20;5.63;;;3.40;;
36501;SDS011;25393;46.108;3.390;2022-09-11T08:23:50;3.83;;;3.47;;
36501;SDS011;25393;46.108;3.390;2022-09-11T08:26:21;4.43;;;3.60;;
36501;SDS011;25393;46.108;3.390;2022-09-11T08:28:52;3.75;;;3.42;;
36501;SDS011;25393;46.108;3.390;2022-09-11T08:31:22;4.20;;;3.70;;
36501;SDS011;25393;46.108;3.390;2022-09-11T08:33:52;7.38;;;3.40;;
36501;SDS011;25393;46.108;3.390;2022-09-11T08:36:21;6.75;;;3.50;;
36501;SDS011;25393;46.108;3.390;2022-09-11T08:38:48;3.60;;;3.13;;
36501;SDS011;25393;46.108;3.390;2022-09-11T08:46:43;3.47;;;3.22;;
36501;SDS011;25393;46.108;3.390;2022-09-11T08:49:23;4.03;;;3.65;;
36501;SDS011;25393;46.108;3.390;2022-09-11T08:52:00;3.80;;;3.50;;
36501;SDS011;25393;46.108;3.390;2022-09-11T08:54:32;4.20;;;3.25;;
36501;SDS011;25393;46.108;3.390;2022-09-11T09:00:06;3.53;;;3.22;;
36501;SDS011;25393;46.108;3.390;2022-09-11T09:02:56;4.15;;;3.50;;
36501;SDS011;25393;46.108;3.390;2022-09-11T09:10:56;6.07;;;3.30;;
36501;SDS011;25393;46.108;3.390;2022-09-11T09:18:47;4.00;;;3.55;;
36501;SDS011;25393;46.108;3.390;2022-09-11T09:21:25;12.63;;;3.35;;
36501;SDS011;25393;46.108;3.390;2022-09-11T09:23:58;4.55;;;4.20;;
36501;SDS011;25393;46.108;3.390;2022-09-11T09:26:38;4.13;;;3.58;;
36501;SDS011;25393;46.108;3.390;2022-09-11T09:29:08;4.30;;;3.10;;
36501;SDS011;25393;46.108;3.390;2022-09-11T09:31:39;3.17;;;2.88;;
36501;SDS011;25393;46.108;3.390;2022-09-11T09:34:13;6.15;;;3.40;;
36501;SDS011;25393;46.108;3.390;2022-09-11T09:36:52;7.07;;;3.33;;
36501;SDS011;25393;46.108;3.390;2022-09-11T09:39:24;3.10;;;2.60;;
36501;SDS011;25393;46.108;3.390;2022-09-11T09:42:00;5.88;;;2.80;;
36501;SDS011;25393;46.108;3.390;2022-09-11T09:47:16;3.00;;;2.80;;
36501;SDS011;25393;46.108;3.390;2022-09-11T09:49:43;3.95;;;2.80;;
36501;SDS011;25393;46.108;3.390;2022-09-11T09:54:52;3.50;;;2.70;;
36501;SDS011;25393;46.108;3.390;2022-09-11T09:57:31;3.05;;;2.80;;
36501;SDS011;25393;46.108;3.390;2022-09-11T10:00:12;4.90;;;2.72;;
36501;SDS011;25393;46.108;3.390;2022-09-11T10:02:45;4.57;;;2.47;;
36501;SDS011;25393;46.108;3.390;2022-09-11T10:12:59;2.40;;;2.20;;
36501;SDS011;25393;46.108;3.390;2022-09-11T10:15:48;3.03;;;2.13;;
36501;SDS011;25393;46.108;3.390;2022-09-11T10:18:34;3.40;;;2.20;;
36501;SDS011;25393;46.108;3.390;2022-09-11T10:26:40;3.25;;;2.05;;
36501;SDS011;25393;46.108;3.390;2022-09-11T10:29:07;2.40;;;2.20;;
36501;SDS011;25393;46.108;3.390;2022-09-11T10:31:40;6.88;;;2.55;;
36501;SDS011;25393;46.108;3.390;2022-09-11T10:34:15;3.35;;;2.30;;
36501;SDS011;25393;46.108;3.390;2022-09-11T10:36:54;2.45;;;2.25;;
36501;SDS011;25393;46.108;3.390;2022-09-11T10:39:29;2.45;;;2.25;;
36501;SDS011;25393;46.108;3.390;2022-09-11T10:41:58;3.03;;;2.65;;
36501;SDS011;25393;46.108;3.390;2022-09-11T10:44:35;3.17;;;2.40;;
36501;SDS011;25393;46.108;3.390;2022-09-11T10:49:54;2.88;;;2.67;;
36501;SDS011;25393;46.108;3.390;2022-09-11T10:53:01;6.20;;;2.53;;
36501;SDS011;25393;46.108;3.390;2022-09-11T10:55:41;3.53;;;2.60;;
36501;SDS011;25393;46.108;3.390;2022-09-11T10:58:18;3.90;;;2.30;;
36501;SDS011;25393;46.108;3.390;2022-09-11T11:00:49;3.78;;;2.53;;
36501;SDS011;25393;46.108;3.390;2022-09-11T11:11:41;3.53;;;2.58;;
36501;SDS011;25393;46.108;3.390;2022-09-11T11:14:29;2.60;;;2.40;;
36501;SDS011;25393;46.108;3.390;2022-09-11T11:16:58;4.35;;;2.60;;
36501;SDS011;25393;46.108;3.390;2022-09-11T11:20:18;2.88;;;2.10;;
36501;SDS011;25393;46.108;3.390;2022-09-11T11:23:03;5.43;;;2.40;;
36501;SDS011;25393;46.108;3.390;2022-09-11T11:25:46;2.30;;;2.10;;
36501;SDS011;25393;46.108;3.390;2022-09-11T11:28:31;2.78;;;2.17;;
36501;SDS011;25393;46.108;3.390;2022-09-11T11:36:56;2.70;;;2.50;;
36501;SDS011;25393;46.108;3.390;2022-09-11T11:42:26;2.60;;;2.40;;
36501;SDS011;25393;46.108;3.390;2022-09-11T11:47:42;2.67;;;2.38;;
36501;SDS011;25393;46.108;3.390;2022-09-11T11:56:03;4.90;;;2.40;;
36501;SDS011;25393;46.108;3.390;2022-09-11T12:01:44;3.78;;;2.22;;
36501;SDS011;25393;46.108;3.390;2022-09-11T12:07:20;2.05;;;1.95;;
36501;SDS011;25393;46.108;3.390;2022-09-11T12:09:54;3.13;;;1.92;;
36501;SDS011;25393;46.108;3.390;2022-09-11T12:12:23;3.53;;;1.98;;
36501;SDS011;25393;46.108;3.390;2022-09-11T12:14:52;2.00;;;1.90;;
36501;SDS011;25393;46.108;3.390;2022-09-11T12:22:42;2.70;;;2.45;;
36501;SDS011;25393;46.108;3.390;2022-09-11T12:32:47;2.40;;;2.30;;
36501;SDS011;25393;46.108;3.390;2022-09-11T12:38:20;3.25;;;2.42;;
36501;SDS011;25393;46.108;3.390;2022-09-11T12:40:56;2.33;;;2.22;;
36501;SDS011;25393;46.108;3.390;2022-09-11T12:46:07;2.85;;;1.95;;
36501;SDS011;25393;46.108;3.390;2022-09-11T12:48:41;2.70;;;2.50;;
36501;SDS011;25393;46.108;3.390;2022-09-11T12:53:58;2.33;;;2.22;;
36501;SDS011;25393;46.108;3.390;2022-09-11T12:56:31;2.65;;;2.45;;
36501;SDS011;25393;46.108;3.390;2022-09-11T12:59:00;2.10;;;1.95;;
36501;SDS011;25393;46.108;3.390;2022-09-11T13:01:34;2.55;;;2.10;;
36501;SDS011;25393;46.108;3.390;2022-09-11T13:06:43;2.10;;;2.00;;
36501;SDS011;25393;46.108;3.390;2022-09-11T13:09:17;2.50;;;2.30;;
36501;SDS011;25393;46.108;3.390;2022-09-11T13:11:46;2.53;;;2.42;;
36501;SDS011;25393;46.108;3.390;2022-09-11T13:16:57;3.00;;;2.38;;
36501;SDS011;25393;46.108;3.390;2022-09-11T13:19:32;2.42;;;2.25;;
36501;SDS011;25393;46.108;3.390;2022-09-11T13:22:23;2.92;;;2.50;;
36501;SDS011;25393;46.108;3.390;2022-09-11T13:25:04;2.67;;;2.30;;
36501;SDS011;25393;46.108;3.390;2022-09-11T13:27:39;2.45;;;2.25;;
36501;SDS011;25393;46.108;3.390;2022-09-11T13:30:10;2.20;;;2.10;;
36501;SDS011;25393;46.108;3.390;2022-09-11T13:32:41;2.38;;;2.22;;
36501;SDS011;25393;46.108;3.390;2022-09-11T13:35:12;4.60;;;2.28;;
36501;SDS011;25393;46.108;3.390;2022-09-11T13:40:24;2.33;;;2.13;;
36501;SDS011;25393;46.108;3.390;2022-09-11T13:43:00;2.78;;;2.58;;
36501;SDS011;25393;46.108;3.390;2022-09-11T13:45:27;2.40;;;2.20;;
36501;SDS011;25393;46.108;3.390;2022-09-11T13:47:54;2.85;;;2.20;;
36501;SDS011;25393;46.108;3.390;2022-09-11T13:50:23;2.10;;;2.00;;
36501;SDS011;25393;46.108;3.390;2022-09-11T13:52:50;3.15;;;2.22;;
36501;SDS011;25393;46.108;3.390;2022-09-11T13:55:22;2.20;;;2.00;;
36501;SDS011;25393;46.108;3.390;2022-09-11T13:57:56;3.65;;;2.10;;
36501;SDS011;25393;46.108;3.390;2022-09-11T14:00:37;2.40;;;2.25;;
36501;SDS011;25393;46.108;3.390;2022-09-11T14:03:05;2.50;;;2.30;;
36501;SDS011;25393;46.108;3.390;2022-09-11T14:05:45;2.30;;;2.20;;
36501;SDS011;25393;46.108;3.390;2022-09-11T14:08:19;2.78;;;2.58;;
36501;SDS011;25393;46.108;3.390;2022-09-11T14:10:52;2.50;;;2.40;;
36501;SDS011;25393;46.108;3.390;2022-09-11T14:16:20;2.50;;;2.30;;
36501;SDS011;25393;46.108;3.390;2022-09-11T14:21:29;2.08;;;1.98;;
36501;SDS011;25393;46.108;3.390;2022-09-11T14:23:56;5.28;;;2.55;;
36501;SDS011;25393;46.108;3.390;2022-09-11T14:26:38;2.20;;;2.10;;
36501;SDS011;25393;46.108;3.390;2022-09-11T14:34:54;2.40;;;2.20;;
36501;SDS011;25393;46.108;3.390;2022-09-11T14:37:22;2.20;;;2.10;;
36501;SDS011;25393;46.108;3.390;2022-09-11T14:39:54;2.63;;;2.42;;
36501;SDS011;25393;46.108;3.390;2022-09-11T14:42:29;2.40;;;2.30;;
36501;SDS011;25393;46.108;3.390;2022-09-11T14:44:59;2.17;;;2.03;;
36501;SDS011;25393;46.108;3.390;2022-09-11T14:47:33;2.30;;;2.10;;
36501;SDS011;25393;46.108;3.390;2022-09-11T14:49:59;1.85;;;1.73;;
36501;SDS011;25393;46.108;3.390;2022-09-11T14:52:27;3.75;;;1.90;;
36501;SDS011;25393;46.108;3.390;2022-09-11T14:54:54;3.72;;;2.10;;
36501;SDS011;25393;46.108;3.390;2022-09-11T14:57:28;4.00;;;2.10;;
36501;SDS011;25393;46.108;3.390;2022-09-11T14:59:57;2.35;;;2.15;;
36501;SDS011;25393;46.108;3.390;2022-09-11T15:02:30;2.25;;;2.15;;
36501;SDS011;25393;46.108;3.390;2022-09-11T15:04:56;2.75;;;2.55;;
36501;SDS011;25393;46.108;3.390;2022-09-11T15:07:24;2.40;;;2.20;;
36501;SDS011;25393;46.108;3.390;2022-09-11T15:09:54;2.97;;;2.25;;
36501;SDS011;25393;46.108;3.390;2022-09-11T15:12:21;2.47;;;2.20;;
36501;SDS011;25393;46.108;3.390;2022-09-11T15:14:48;2.42;;;2.22;;
36501;SDS011;25393;46.108;3.390;2022-09-11T15:17:23;2.30;;;2.10;;
36501;SDS011;25393;46.108;3.390;2022-09-11T15:19:50;3.10;;;2.90;;
36501;SDS011;25393;46.108;3.390;2022-09-11T15:22:26;4.78;;;4.57;;
36501;SDS011;25393;46.108;3.390;2022-09-11T15:24:55;2.75;;;2.55;;
36501;SDS011;25393;46.108;3.390;2022-09-11T15:27:22;4.43;;;2.40;;
36501;SDS011;25393;46.108;3.390;2022-09-11T15:29:50;2.78;;;2.55;;
36501;SDS011;25393;46.108;3.390;2022-09-11T15:32:17;2.80;;;2.60;;
36501;SDS011;25393;46.108;3.390;2022-09-11T15:34:44;2.50;;;2.40;;
36501;SDS011;25393;46.108;3.390;2022-09-11T15:37:11;2.35;;;2.25;;
36501;SDS011;25393;46.108;3.390;2022-09-11T15:39:38;2.72;;;2.63;;
36501;SDS011;25393;46.108;3.390;2022-09-11T15:42:05;2.30;;;2.20;;
36501;SDS011;25393;46.108;3.390;2022-09-11T15:44:35;2.95;;;2.70;;
36501;SDS011;25393;46.108;3.390;2022-09-11T15:47:02;3.90;;;3.60;;
36501;SDS011;25393;46.108;3.390;2022-09-11T15:49:32;2.28;;;2.17;;
36501;SDS011;25393;46.108;3.390;2022-09-11T15:52:06;2.33;;;2.10;;
36501;SDS011;25393;46.108;3.390;2022-09-11T15:54:33;3.08;;;2.50;;
36501;SDS011;25393;46.108;3.390;2022-09-11T15:56:59;2.30;;;2.20;;
36501;SDS011;25393;46.108;3.390;2022-09-11T15:59:26;2.47;;;2.38;;
36501;SDS011;25393;46.108;3.390;2022-09-11T16:01:54;2.60;;;2.33;;
36501;SDS011;25393;46.108;3.390;2022-09-11T16:04:24;2.53;;;1.90;;
36501;SDS011;25393;46.108;3.390;2022-09-11T16:06:53;2.50;;;2.00;;
36501;SDS011;25393;46.108;3.390;2022-09-11T16:09:21;2.20;;;2.10;;
36501;SDS011;25393;46.108;3.390;2022-09-11T16:11:49;2.30;;;2.10;;
36501;SDS011;25393;46.108;3.390;2022-09-11T16:14:22;4.93;;;2.47;;
36501;SDS011;25393;46.108;3.390;2022-09-11T16:16:50;2.67;;;2.20;;
36501;SDS011;25393;46.108;3.390;2022-09-11T16:19:18;2.22;;;2.13;;
36501;SDS011;25393;46.108;3.390;2022-09-11T16:21:47;2.40;;;2.30;;
36501;SDS011;25393;46.108;3.390;2022-09-11T16:24:14;2.45;;;2.10;;
36501;SDS011;25393;46.108;3.390;2022-09-11T16:26:44;2.42;;;2.20;;
36501;SDS011;25393;46.108;3.390;2022-09-11T16:29:11;2.30;;;2.20;;
36501;SDS011;25393;46.108;3.390;2022-09-11T16:31:43;2.00;;;1.90;;
36501;SDS011;25393;46.108;3.390;2022-09-11T16:34:09;3.38;;;2.30;;
36501;SDS011;25393;46.108;3.390;2022-09-11T16:36:36;2.58;;;2.47;;
36501;SDS011;25393;46.108;3.390;2022-09-11T16:39:08;3.20;;;2.30;;
36501;SDS011;25393;46.108;3.390;2022-09-11T16:41:37;3.22;;;2.25;;
36501;SDS011;25393;46.108;3.390;2022-09-11T16:44:05;2.47;;;2.30;;
36501;SDS011;25393;46.108;3.390;2022-09-11T16:46:33;2.63;;;2.47;;
36501;SDS011;25393;46.108;3.390;2022-09-11T16:49:00;2.28;;;2.17;;
36501;SDS011;25393;46.108;3.390;2022-09-11T16:51:30;3.00;;;2.50;;
36501;SDS011;25393;46.108;3.390;2022-09-11T16:53:59;2.53;;;2.40;;
36501;SDS011;25393;46.108;3.390;2022-09-11T16:56:30;4.15;;;2.30;;
36501;SDS011;25393;46.108;3.390;2022-09-11T16:58:57;3.22;;;2.38;;
36501;SDS011;25393;46.108;3.390;2022-09-11T17:01:30;4.82;;;2.63;;
36501;SDS011;25393;46.108;3.390;2022-09-11T17:03:57;3.15;;;2.42;;
36501;SDS011;25393;46.108;3.390;2022-09-11T17:06:29;2.50;;;2.30;;
36501;SDS011;25393;46.108;3.390;2022-09-11T17:08:59;3.03;;;2.53;;
36501;SDS011;25393;46.108;3.390;2022-09-11T17:11:30;3.67;;;2.40;;
36501;SDS011;25393;46.108;3.390;2022-09-11T17:14:01;2.60;;;2.30;;
36501;SDS011;25393;46.108;3.390;2022-09-11T17:16:29;2.63;;;2.30;;
36501;SDS011;25393;46.108;3.390;2022-09-11T17:18:58;2.30;;;2.20;;
36501;SDS011;25393;46.108;3.390;2022-09-11T17:21:27;2.60;;;2.40;;
36501;SDS011;25393;46.108;3.390;2022-09-11T17:23:55;2.85;;;2.65;;
36501;SDS011;25393;46.108;3.390;2022-09-11T17:26:22;3.03;;;2.72;;
36501;SDS011;25393;46.108;3.390;2022-09-11T17:28:50;2.65;;;2.45;;
36501;SDS011;25393;46.108;3.390;2022-09-11T17:31:20;2.45;;;2.30;;
36501;SDS011;25393;46.108;3.390;2022-09-11T17:33:47;3.38;;;2.70;;
36501;SDS011;25393;46.108;3.390;2022-09-11T17:36:15;3.80;;;2.45;;
36501;SDS011;25393;46.108;3.390;2022-09-11T17:38:44;2.70;;;2.47;;
36501;SDS011;25393;46.108;3.390;2022-09-11T17:41:11;4.10;;;2.53;;
36501;SDS011;25393;46.108;3.390;2022-09-11T17:43:38;3.22;;;2.58;;